Time;durP1;ratioP1;P1;durP2;ratioP2;P2;SDS_P1;SDS_P2;PMS_P1;PMS_P2;Temp;Humidity;BMP_temperature;BMP_pressure;BME280_temperature;BME280_humidity;BME280_pressure;Samples;Min_cycle;Max_cycle;Signal;HPM_P1;HPM_P2
2022/04/05 00:01:27;;;;;;;7.03;4.53;;;4.60;76.00;;;;;;4991461;28;20054;-65
2022/04/05 00:03:53;;;;;;;7.18;4.70;;;4.60;76.20;;;;;;4977083;28;21004;-65
2022/04/05 00:06:19;;;;;;;6.53;4.45;;;4.60;76.10;;;;;;4975526;28;20126;-65
2022/04/05 00:08:44;;;;;;;6.68;4.72;;;4.60;76.00;;;;;;4976730;28;20444;-66
2022/04/05 00:11:10;;;;;;;8.30;5.00;;;4.60;76.20;;;;;;4973136;28;20035;-65
2022/04/05 00:13:36;;;;;;;5.60;4.85;;;4.60;76.60;;;;;;4969320;28;20146;-66
2022/04/05 00:16:01;;;;;;;7.47;5.22;;;4.60;76.40;;;;;;4978379;28;20022;-65
2022/04/05 00:18:27;;;;;;;6.82;5.03;;;4.60;77.00;;;;;;4962504;28;20034;-65
2022/04/05 00:20:53;;;;;;;7.65;4.72;;;4.60;76.60;;;;;;4963197;28;20149;-67
2022/04/05 00:23:19;;;;;;;5.38;4.70;;;4.60;76.70;;;;;;4979501;28;20533;-65
2022/04/05 00:25:44;;;;;;;6.10;4.78;;;4.60;76.60;;;;;;4966993;28;20031;-66
2022/04/05 00:28:10;;;;;;;6.15;4.80;;;4.60;76.70;;;;;;4960160;28;22165;-65
2022/04/05 00:30:36;;;;;;;6.97;4.70;;;4.60;76.50;;;;;;4976483;28;20133;-66
2022/04/05 00:33:01;;;;;;;6.38;5.07;;;4.60;76.60;;;;;;4978973;28;20046;-66
2022/04/05 00:35:27;;;;;;;6.63;4.80;;;4.60;76.70;;;;;;4958998;28;20394;-65
2022/04/05 00:37:53;;;;;;;7.47;4.75;;;4.60;76.70;;;;;;4970959;28;20151;-65
2022/04/05 00:40:19;;;;;;;7.60;4.95;;;4.60;76.60;;;;;;4981833;28;20062;-66
2022/04/05 00:42:45;;;;;;;6.22;5.25;;;4.70;76.70;;;;;;4978313;28;20180;-65
2022/04/05 00:45:11;;;;;;;5.97;5.03;;;4.70;76.80;;;;;;4972097;28;20094;-65
2022/04/05 00:47:38;;;;;;;6.65;5.35;;;4.70;76.50;;;;;;4958950;28;20026;-66
2022/04/05 00:50:05;;;;;;;6.13;5.28;;;4.70;76.70;;;;;;4971783;28;20046;-65
2022/04/05 00:52:31;;;;;;;6.32;5.15;;;4.70;76.50;;;;;;4976735;28;20042;-65
2022/04/05 00:54:58;;;;;;;9.38;5.70;;;4.70;76.60;;;;;;4959311;28;20043;-66
2022/04/05 00:57:25;;;;;;;6.18;5.38;;;4.70;76.50;;;;;;4967280;28;20153;-65
2022/04/05 01:00:01;;;;;;;6.60;5.68;;;4.70;76.30;;;;;;4978499;28;20034;-66
2022/04/05 01:02:28;;;;;;;7.72;5.45;;;4.80;76.80;;;;;;4978614;28;20037;-65
2022/04/05 01:04:54;;;;;;;6.53;5.45;;;4.80;76.30;;;;;;4960621;28;20031;-65
2022/04/05 01:07:23;;;;;;;8.23;6.18;;;4.80;76.00;;;;;;4962976;28;20582;-66
2022/04/05 01:09:55;;;;;;;8.82;5.95;;;4.80;76.40;;;;;;4978522;28;20034;-65
2022/04/05 01:12:22;;;;;;;8.10;5.50;;;4.80;76.30;;;;;;4977323;28;20045;-66
2022/04/05 01:14:48;;;;;;;7.07;5.70;;;4.80;76.20;;;;;;4958576;28;20039;-65
2022/04/05 01:17:16;;;;;;;6.75;5.70;;;4.80;76.10;;;;;;4975433;28;20104;-66
2022/04/05 01:19:42;;;;;;;8.38;5.93;;;4.80;76.20;;;;;;4966171;28;20408;-65
2022/04/05 01:22:07;;;;;;;6.88;5.63;;;4.80;76.00;;;;;;4954236;28;20078;-65
2022/04/05 01:24:34;;;;;;;8.30;6.10;;;4.80;75.90;;;;;;4974116;28;20038;-66
2022/04/05 01:27:04;;;;;;;6.50;5.50;;;4.80;76.20;;;;;;4970542;28;20031;-65
2022/04/05 01:29:30;;;;;;;8.48;5.63;;;4.80;76.00;;;;;;4959009;28;20105;-66
2022/04/05 01:32:02;;;;;;;7.55;5.55;;;4.80;76.00;;;;;;4968817;28;20125;-67
2022/04/05 01:34:30;;;;;;;6.68;5.20;;;4.80;76.20;;;;;;4975764;28;20030;-65
2022/04/05 01:36:58;;;;;;;8.43;5.43;;;4.90;75.90;;;;;;4962160;28;20077;-67
2022/04/05 01:39:26;;;;;;;8.68;5.57;;;4.90;76.00;;;;;;4966741;28;20049;-65
2022/04/05 01:42:10;;;;;;;5.80;4.97;;;4.90;75.80;;;;;;4950521;28;20039;-65
2022/04/05 01:44:38;;;;;;;6.88;5.18;;;4.90;76.20;;;;;;4974641;28;20393;-65
2022/04/05 01:47:05;;;;;;;6.82;5.43;;;4.90;75.90;;;;;;4972691;28;20035;-65
2022/04/05 01:49:31;;;;;;;7.47;4.88;;;4.90;75.70;;;;;;4961192;28;20030;-65
2022/04/05 01:51:56;;;;;;;8.20;4.65;;;4.90;75.50;;;;;;4972025;28;20533;-66
2022/04/05 01:54:22;;;;;;;6.70;4.82;;;4.90;75.30;;;;;;4978890;28;20567;-67
2022/04/05 01:56:50;;;;;;;6.45;5.30;;;4.90;75.30;;;;;;4977818;28;20035;-66
2022/04/05 01:59:18;;;;;;;7.28;4.57;;;5.00;75.20;;;;;;4971930;28;20039;-65
2022/04/05 02:01:44;;;;;;;6.25;4.70;;;5.00;75.20;;;;;;4960237;28;20027;-66
2022/04/05 02:04:11;;;;;;;7.60;5.15;;;5.00;75.00;;;;;;4972683;28;20122;-66
2022/04/05 02:06:37;;;;;;;7.78;5.00;;;5.00;75.00;;;;;;4976353;28;20041;-66
2022/04/05 02:09:04;;;;;;;7.63;5.28;;;5.00;75.10;;;;;;4958670;28;20074;-65
2022/04/05 02:11:29;;;;;;;7.28;5.05;;;5.00;74.80;;;;;;4968937;28;20533;-65
2022/04/05 02:13:55;;;;;;;7.45;5.13;;;5.00;74.80;;;;;;4978269;28;20042;-65
2022/04/05 02:16:21;;;;;;;7.03;4.90;;;5.10;75.10;;;;;;4959710;28;20513;-65
2022/04/05 02:18:46;;;;;;;5.90;4.90;;;5.10;75.00;;;;;;4960496;28;20085;-65
2022/04/05 02:21:12;;;;;;;8.68;5.22;;;5.00;74.70;;;;;;4977484;28;20109;-65
2022/04/05 02:23:38;;;;;;;6.78;5.20;;;5.00;74.70;;;;;;4969676;28;20491;-65
2022/04/05 02:26:04;;;;;;;6.85;5.15;;;5.10;74.80;;;;;;4955947;28;20030;-67
2022/04/05 02:28:30;;;;;;;8.07;5.00;;;5.10;74.80;;;;;;4977741;28;20085;-65
2022/04/05 02:30:56;;;;;;;7.53;5.00;;;5.10;74.80;;;;;;4975189;28;20039;-65
2022/04/05 02:33:21;;;;;;;7.75;5.20;;;5.10;74.60;;;;;;4955846;28;20043;-65
2022/04/05 02:35:48;;;;;;;6.53;4.88;;;5.10;74.80;;;;;;4969654;28;20426;-67
2022/04/05 02:38:14;;;;;;;6.63;5.13;;;5.10;74.50;;;;;;4977390;28;20113;-65
2022/04/05 02:40:40;;;;;;;6.68;4.90;;;5.10;74.60;;;;;;4959931;28;20490;-65
2022/04/05 02:43:06;;;;;;;6.85;5.20;;;5.10;74.50;;;;;;4965400;28;20033;-66
2022/04/05 02:45:32;;;;;;;6.07;5.25;;;5.10;74.50;;;;;;4977823;28;20517;-65
2022/04/05 02:47:58;;;;;;;7.10;5.10;;;5.10;74.80;;;;;;4963442;28;20142;-65
2022/04/05 02:50:24;;;;;;;7.47;4.82;;;5.10;74.60;;;;;;4974212;28;20515;-65
2022/04/05 02:52:50;;;;;;;5.97;5.05;;;5.10;74.80;;;;;;4957485;28;20449;-66
2022/04/05 02:55:17;;;;;;;6.60;5.25;;;5.00;75.00;;;;;;4964062;28;20047;-66
2022/04/05 02:57:45;;;;;;;7.40;5.35;;;5.00;75.00;;;;;;4978126;28;20061;-64
2022/04/05 03:00:12;;;;;;;6.68;5.35;;;5.00;74.90;;;;;;4963401;28;20046;-65
2022/04/05 03:02:39;;;;;;;7.88;5.50;;;4.90;75.20;;;;;;4988838;28;20161;-65
2022/04/05 03:05:06;;;;;;;8.00;5.78;;;4.90;75.30;;;;;;4958743;28;20113;-65
2022/04/05 03:07:36;;;;;;;8.65;5.80;;;4.90;75.90;;;;;;4966238;28;20035;-65
2022/04/05 03:10:06;;;;;;;7.85;5.68;;;4.90;76.00;;;;;;4978457;28;20031;-65
2022/04/05 03:12:34;;;;;;;8.45;5.47;;;4.80;76.20;;;;;;4975028;28;20045;-67
2022/04/05 03:15:00;;;;;;;8.88;5.60;;;4.80;76.40;;;;;;4962173;28;20050;-67
2022/04/05 03:17:25;;;;;;;8.45;5.32;;;4.80;76.00;;;;;;4967488;28;20295;-65
2022/04/05 03:19:51;;;;;;;8.18;5.80;;;4.80;76.00;;;;;;4966962;28;20387;-65
2022/04/05 03:22:17;;;;;;;8.70;5.53;;;4.70;76.50;;;;;;4977427;28;20030;-65
2022/04/05 03:24:43;;;;;;;8.75;5.75;;;4.70;76.40;;;;;;4975574;28;20130;-66
2022/04/05 03:27:09;;;;;;;9.60;5.72;;;4.70;76.60;;;;;;4956047;28;20031;-65
2022/04/05 03:29:35;;;;;;;7.25;5.85;;;4.70;76.50;;;;;;4968083;28;20057;-65
2022/04/05 03:32:01;;;;;;;6.78;5.53;;;4.70;76.60;;;;;;4975178;28;20041;-67
2022/04/05 03:34:27;;;;;;;6.90;5.45;;;4.70;76.70;;;;;;4961397;28;20043;-65
2022/04/05 03:36:53;;;;;;;8.35;5.80;;;4.70;76.70;;;;;;4959607;28;20042;-65
2022/04/05 03:39:19;;;;;;;8.43;6.25;;;4.70;76.60;;;;;;4978899;28;20043;-65
2022/04/05 03:41:44;;;;;;;7.70;6.03;;;4.60;77.30;;;;;;4981514;28;20398;-66
2022/04/05 03:44:11;;;;;;;9.85;6.40;;;4.60;77.30;;;;;;4976194;28;20089;-66
2022/04/05 03:46:36;;;;;;;7.43;5.82;;;4.60;78.50;;;;;;4958358;28;20055;-65
2022/04/05 03:49:02;;;;;;;7.40;5.93;;;4.60;77.40;;;;;;4963566;28;20042;-65
2022/04/05 03:51:28;;;;;;;8.70;6.03;;;4.60;77.60;;;;;;4975450;28;20034;-65
2022/04/05 03:53:54;;;;;;;7.47;5.97;;;4.60;77.50;;;;;;4980034;28;20043;-65
2022/04/05 03:56:20;;;;;;;11.32;6.15;;;4.50;77.80;;;;;;4975967;28;20069;-67
2022/04/05 03:58:47;;;;;;;8.60;6.20;;;4.50;77.90;;;;;;4974885;28;20046;-66
2022/04/05 04:01:12;;;;;;;8.52;6.20;;;4.60;77.70;;;;;;4975793;28;20134;-65
2022/04/05 04:03:38;;;;;;;11.45;6.40;;;4.50;77.70;;;;;;4976022;28;20392;-66
2022/04/05 04:06:04;;;;;;;10.48;7.32;;;4.50;77.80;;;;;;4975590;28;20035;-65
2022/04/05 04:08:29;;;;;;;11.20;7.25;;;4.50;77.80;;;;;;4976613;28;20035;-67
2022/04/05 04:10:55;;;;;;;10.07;6.82;;;4.50;78.10;;;;;;4975564;28;20446;-65
2022/04/05 04:13:21;;;;;;;8.23;6.82;;;4.50;78.10;;;;;;4979092;28;20046;-65
2022/04/05 04:15:46;;;;;;;10.02;6.90;;;4.50;78.30;;;;;;4977611;28;20446;-68
2022/04/05 04:18:12;;;;;;;9.27;6.47;;;4.50;78.50;;;;;;4975035;28;20122;-66
2022/04/05 04:20:39;;;;;;;9.82;7.15;;;4.60;78.30;;;;;;4976871;28;20153;-67
2022/04/05 04:23:05;;;;;;;11.60;7.13;;;4.60;78.20;;;;;;4977388;28;20035;-66
2022/04/05 04:25:31;;;;;;;9.50;6.85;;;4.60;78.30;;;;;;4974468;28;20031;-66
2022/04/05 04:27:57;;;;;;;10.43;7.43;;;4.60;78.50;;;;;;4975679;28;20029;-65
2022/04/05 04:30:23;;;;;;;10.20;7.57;;;4.50;78.50;;;;;;4975694;28;20513;-65
2022/04/05 04:32:49;;;;;;;11.63;7.78;;;4.50;78.20;;;;;;4966652;28;20038;-65
2022/04/05 04:35:15;;;;;;;10.68;7.95;;;4.60;78.50;;;;;;4950058;28;20045;-66
2022/04/05 04:37:40;;;;;;;10.95;7.85;;;4.60;78.30;;;;;;4976975;28;20042;-67
2022/04/05 04:40:07;;;;;;;11.07;7.57;;;4.60;78.40;;;;;;4972328;28;20043;-67
2022/04/05 04:42:33;;;;;;;12.00;8.70;;;4.60;78.40;;;;;;4960736;28;20042;-66
2022/04/05 04:45:00;;;;;;;49.97;22.15;;;4.60;78.70;;;;;;4974161;28;20038;-66
2022/04/05 04:47:25;;;;;;;14.10;10.05;;;4.60;78.40;;;;;;4975152;28;20467;-66
2022/04/05 04:49:51;;;;;;;13.65;8.32;;;4.60;78.80;;;;;;4960824;28;20067;-66
2022/04/05 04:52:16;;;;;;;12.27;8.10;;;4.60;78.50;;;;;;4956089;28;20038;-65
2022/04/05 04:54:42;;;;;;;11.52;8.75;;;4.60;78.60;;;;;;4973157;28;20537;-64
2022/04/05 04:57:08;;;;;;;10.80;8.02;;;4.60;78.70;;;;;;4970493;28;20039;-66
2022/04/05 04:59:33;;;;;;;11.77;7.85;;;4.60;78.80;;;;;;4956109;28;20027;-66
2022/04/05 05:01:59;;;;;;;10.50;7.80;;;4.60;78.60;;;;;;4970440;28;20437;-65
2022/04/05 05:04:25;;;;;;;10.57;8.32;;;4.60;78.50;;;;;;4974193;28;20046;-66
2022/04/05 05:06:51;;;;;;;11.25;7.85;;;4.60;78.80;;;;;;4953371;28;20043;-67
2022/04/05 05:09:17;;;;;;;10.55;7.38;;;4.60;78.60;;;;;;4963992;28;20065;-65
2022/04/05 05:11:44;;;;;;;10.88;7.70;;;4.60;78.60;;;;;;4973125;28;20117;-67
2022/04/05 05:14:10;;;;;;;11.15;8.20;;;4.60;78.30;;;;;;4960423;28;20039;-68
2022/04/05 05:16:36;;;;;;;11.65;8.07;;;4.60;78.60;;;;;;4969530;28;20097;-67
2022/04/05 05:19:02;;;;;;;11.90;8.15;;;4.70;78.50;;;;;;4957859;28;20332;-67
2022/04/05 05:21:27;;;;;;;12.85;8.25;;;4.70;78.50;;;;;;4966367;28;20100;-68
2022/04/05 05:23:53;;;;;;;11.52;8.10;;;4.70;78.60;;;;;;4975311;28;20446;-67
2022/04/05 05:26:18;;;;;;;11.70;7.95;;;4.70;78.70;;;;;;4958799;28;20540;-66
2022/04/05 05:28:44;;;;;;;11.98;7.93;;;4.70;78.60;;;;;;4957339;28;20109;-66
2022/04/05 05:31:10;;;;;;;11.77;8.50;;;4.70;78.60;;;;;;4976818;28;20563;-66
2022/04/05 05:33:36;;;;;;;10.05;8.02;;;4.70;79.30;;;;;;4973153;28;20049;-67
2022/04/05 05:36:01;;;;;;;12.00;8.07;;;4.80;78.50;;;;;;4972898;28;20030;-66
2022/04/05 05:38:27;;;;;;;11.98;7.65;;;4.80;78.60;;;;;;4956648;28;20414;-66
2022/04/05 05:40:53;;;;;;;13.05;8.45;;;4.80;78.50;;;;;;4957635;28;20407;-65
2022/04/05 05:43:18;;;;;;;10.05;7.65;;;4.80;78.20;;;;;;4954809;28;20589;-66
2022/04/05 05:45:44;;;;;;;12.00;8.40;;;4.80;78.40;;;;;;4964183;28;20034;-65
2022/04/05 05:48:10;;;;;;;11.55;8.02;;;4.90;78.50;;;;;;4974904;28;20035;-65
2022/04/05 05:50:36;;;;;;;10.63;8.10;;;4.90;78.30;;;;;;4954896;28;20089;-67
2022/04/05 05:53:03;;;;;;;10.45;7.80;;;4.90;78.30;;;;;;4959136;28;20133;-67
2022/04/05 05:55:28;;;;;;;11.10;8.40;;;4.90;78.30;;;;;;4977011;28;20902;-68
2022/04/05 05:57:54;;;;;;;9.07;7.45;;;4.90;78.30;;;;;;4974601;28;20042;-67
2022/04/05 06:00:21;;;;;;;12.52;7.82;;;4.90;78.20;;;;;;4979128;28;20038;-66
2022/04/05 06:02:49;;;;;;;9.93;7.90;;;4.90;78.30;;;;;;4959021;28;20046;-66
2022/04/05 06:05:15;;;;;;;10.20;8.00;;;4.90;78.40;;;;;;4966022;28;20031;-67
2022/04/05 06:07:41;;;;;;;10.10;7.32;;;4.90;78.30;;;;;;4978090;28;20038;-67
2022/04/05 06:10:09;;;;;;;9.90;7.75;;;4.90;78.30;;;;;;4977025;28;20027;-66
2022/04/05 06:12:45;;;;;;;10.10;7.43;;;4.90;78.50;;;;;;4974599;28;20042;-67
2022/04/05 06:15:13;;;;;;;10.13;7.05;;;4.90;78.60;;;;;;4976648;28;20076;-66
2022/04/05 06:17:43;;;;;;;9.93;7.03;;;5.00;78.50;;;;;;4967741;28;20122;-65
2022/04/05 06:20:11;;;;;;;13.93;7.47;;;5.00;78.40;;;;;;4958470;28;20414;-67
2022/04/05 06:22:44;;;;;;;13.20;7.40;;;5.00;78.30;;;;;;4974833;28;20065;-66
2022/04/05 06:25:11;;;;;;;10.10;7.32;;;5.00;78.30;;;;;;4970524;28;20038;-66
2022/04/05 06:27:38;;;;;;;7.88;6.35;;;5.00;78.10;;;;;;4972086;28;20062;-65
2022/04/05 06:30:05;;;;;;;9.52;6.93;;;5.00;78.10;;;;;;4971269;28;20438;-65
2022/04/05 06:32:31;;;;;;;9.13;6.82;;;5.00;78.30;;;;;;4979675;28;20475;-65
2022/04/05 06:34:56;;;;;;;9.75;7.03;;;5.00;78.40;;;;;;4960761;28;22055;-65
2022/04/05 06:37:22;;;;;;;10.98;7.30;;;5.00;78.10;;;;;;4966763;28;20387;-66
2022/04/05 06:39:49;;;;;;;12.85;6.72;;;5.10;78.30;;;;;;4979430;28;20127;-68
2022/04/05 06:42:15;;;;;;;11.10;7.05;;;5.10;78.30;;;;;;4966485;28;20031;-66
2022/04/05 06:44:40;;;;;;;10.38;6.93;;;5.10;78.30;;;;;;4963988;28;20256;-66
2022/04/05 06:47:08;;;;;;;12.10;7.32;;;5.10;79.20;;;;;;4979078;28;20124;-66
2022/04/05 06:49:34;;;;;;;8.32;6.80;;;5.10;78.50;;;;;;4981533;28;20031;-66
2022/04/05 06:51:59;;;;;;;9.48;6.65;;;5.10;78.30;;;;;;4979558;28;20413;-66
2022/04/05 06:54:25;;;;;;;10.25;7.15;;;5.20;78.20;;;;;;4963789;28;20065;-66
2022/04/05 06:56:51;;;;;;;10.48;6.78;;;5.20;78.30;;;;;;4965565;28;20066;-66
2022/04/05 06:59:16;;;;;;;8.68;6.63;;;5.20;78.30;;;;;;4981265;28;20030;-68
2022/04/05 07:01:42;;;;;;;11.52;6.90;;;5.20;78.50;;;;;;4980364;28;20110;-67
2022/04/05 07:04:07;;;;;;;9.10;6.85;;;5.30;78.60;;;;;;4975033;28;20056;-66
2022/04/05 07:06:33;;;;;;;9.95;7.15;;;5.30;79.20;;;;;;4977758;28;20038;-66
2022/04/05 07:08:59;;;;;;;9.40;6.78;;;5.30;78.50;;;;;;4973888;28;20054;-66
2022/04/05 07:11:25;;;;;;;10.60;7.28;;;5.30;78.50;;;;;;4966463;28;20514;-65
2022/04/05 07:13:51;;;;;;;8.00;6.82;;;5.30;78.30;;;;;;4978775;28;20091;-67
2022/04/05 07:16:18;;;;;;;10.43;7.30;;;5.30;78.30;;;;;;4978348;28;20097;-65
2022/04/05 07:18:44;;;;;;;9.75;7.10;;;5.30;78.30;;;;;;4977756;28;20031;-66
2022/04/05 07:21:11;;;;;;;11.68;7.30;;;5.40;78.50;;;;;;4976607;28;20073;-65
2022/04/05 07:23:37;;;;;;;10.23;6.60;;;5.40;78.30;;;;;;4978392;28;20505;-66
2022/04/05 07:26:03;;;;;;;9.32;6.68;;;5.40;78.40;;;;;;4979446;28;20062;-66
2022/04/05 07:28:29;;;;;;;8.98;6.75;;;5.40;78.50;;;;;;4979343;28;20518;-66
2022/04/05 07:30:54;;;;;;;9.43;6.50;;;5.50;78.30;;;;;;4979341;28;20045;-66
2022/04/05 07:33:20;;;;;;;10.65;7.10;;;5.50;78.30;;;;;;4978825;28;20491;-64
2022/04/05 07:35:46;;;;;;;10.30;7.53;;;5.50;78.20;;;;;;4978519;28;20488;-68
2022/04/05 07:38:12;;;;;;;10.40;7.47;;;5.50;78.30;;;;;;4977763;28;20042;-64
2022/04/05 07:40:52;;;;;;;15.98;9.93;;;5.60;78.20;;;;;;4975814;28;20034;-62
2022/04/05 07:43:26;;;;;;;10.95;7.43;;;5.60;78.10;;;;;;4975934;28;20034;-65
2022/04/05 07:45:53;;;;;;;9.40;6.82;;;5.60;78.30;;;;;;4980197;28;20034;-66
2022/04/05 07:48:21;;;;;;;8.13;6.72;;;5.60;78.00;;;;;;4980430;28;20030;-64
2022/04/05 07:50:48;;;;;;;9.93;6.75;;;5.60;78.10;;;;;;4980058;28;20030;-67
2022/04/05 07:53:13;;;;;;;9.27;6.20;;;5.70;78.00;;;;;;4977988;28;20041;-65
2022/04/05 07:55:39;;;;;;;8.40;6.18;;;5.70;77.90;;;;;;4980638;28;20904;-65
2022/04/05 07:58:05;;;;;;;9.52;6.13;;;5.70;77.70;;;;;;4978629;28;20054;-66
2022/04/05 08:00:31;;;;;;;8.43;5.90;;;5.70;77.60;;;;;;4978091;28;20485;-66
2022/04/05 08:02:57;;;;;;;7.82;6.20;;;5.80;77.60;;;;;;4973573;28;20035;-66
2022/04/05 08:05:23;;;;;;;11.85;7.22;;;5.80;77.40;;;;;;4979697;28;20682;-65
2022/04/05 08:07:50;;;;;;;11.70;8.63;;;5.80;77.40;;;;;;4978778;28;20022;-66
2022/04/05 08:10:16;;;;;;;10.45;6.65;;;5.80;77.40;;;;;;4980240;28;20031;-65
2022/04/05 08:12:43;;;;;;;8.30;6.53;;;5.80;77.30;;;;;;4978627;28;20041;-66
2022/04/05 08:15:10;;;;;;;8.38;5.95;;;5.90;77.40;;;;;;4979617;28;21037;-65
2022/04/05 08:17:36;;;;;;;8.77;5.50;;;5.90;77.40;;;;;;4981139;28;20042;-66
2022/04/05 08:20:02;;;;;;;8.85;6.18;;;5.90;77.30;;;;;;4976819;28;20069;-65
2022/04/05 08:22:28;;;;;;;7.45;6.22;;;6.00;77.30;;;;;;4980359;28;20113;-65
2022/04/05 08:24:54;;;;;;;7.78;6.10;;;6.00;77.20;;;;;;4977883;28;20379;-65
2022/04/05 08:27:19;;;;;;;9.45;5.72;;;6.00;77.30;;;;;;4974103;28;20391;-66
2022/04/05 08:29:45;;;;;;;8.02;5.90;;;6.00;77.30;;;;;;4977303;28;20043;-65
2022/04/05 08:32:11;;;;;;;10.65;6.70;;;6.00;77.10;;;;;;4976372;28;20038;-68
2022/04/05 08:34:41;;;;;;;8.95;6.38;;;6.00;76.80;;;;;;4980093;28;20044;-65
2022/04/05 08:37:08;;;;;;;9.15;6.40;;;6.00;76.90;;;;;;4977611;28;20085;-65
2022/04/05 08:39:34;;;;;;;8.18;6.30;;;6.10;77.20;;;;;;4979082;28;20042;-66
2022/04/05 08:42:03;;;;;;;11.07;6.93;;;6.10;77.30;;;;;;4978803;28;20038;-65
2022/04/05 08:44:29;;;;;;;9.98;6.38;;;6.10;77.30;;;;;;4978864;28;20031;-64
2022/04/05 08:46:55;;;;;;;8.45;5.80;;;6.10;77.30;;;;;;4976464;28;20445;-65
2022/04/05 08:49:22;;;;;;;6.65;5.30;;;6.10;77.30;;;;;;4979395;28;20546;-65
2022/04/05 08:51:48;;;;;;;13.23;7.03;;;6.20;77.30;;;;;;4979072;28;20034;-66
2022/04/05 08:54:14;;;;;;;9.52;5.90;;;6.20;77.30;;;;;;4976894;28;20064;-65
2022/04/05 08:56:40;;;;;;;8.07;6.35;;;6.20;77.20;;;;;;4976426;28;20070;-66
2022/04/05 08:59:06;;;;;;;7.65;6.10;;;6.20;77.00;;;;;;4977167;28;20030;-65
2022/04/05 09:01:32;;;;;;;8.15;6.22;;;6.20;77.00;;;;;;4975418;28;20401;-66
2022/04/05 09:03:58;;;;;;;8.82;5.93;;;6.30;77.10;;;;;;4977721;28;20477;-66
2022/04/05 09:06:26;;;;;;;7.75;6.13;;;6.30;77.10;;;;;;4976038;28;20030;-66
2022/04/05 09:08:56;;;;;;;8.85;6.22;;;6.30;77.10;;;;;;4976161;28;20546;-66
2022/04/05 09:11:22;;;;;;;10.20;6.47;;;6.30;77.10;;;;;;4975313;28;20125;-68
2022/04/05 09:13:59;;;;;;;8.48;6.00;;;6.40;77.20;;;;;;4977292;28;20449;-67
2022/04/05 09:16:33;;;;;;;9.52;6.70;;;6.40;77.10;;;;;;4975275;28;20030;-65
2022/04/05 09:19:10;;;;;;;7.57;5.85;;;6.50;76.90;;;;;;4975978;28;20517;-66
2022/04/05 09:21:53;;;;;;;8.07;6.38;;;6.50;76.60;;;;;;4975581;28;20085;-65
2022/04/05 09:24:19;;;;;;;8.10;5.95;;;6.60;76.80;;;;;;4977137;28;20042;-66
2022/04/05 09:26:44;;;;;;;9.57;5.95;;;6.60;76.60;;;;;;4978611;28;20117;-66
2022/04/05 09:29:11;;;;;;;9.68;6.22;;;6.60;76.40;;;;;;4975577;28;20502;-68
2022/04/05 09:31:45;;;;;;;7.85;6.00;;;6.70;76.40;;;;;;4977302;28;20038;-66
2022/04/05 09:34:19;;;;;;;9.45;6.43;;;6.80;76.60;;;;;;4978441;28;20038;-67
2022/04/05 09:36:50;;;;;;;9.88;6.43;;;6.80;76.40;;;;;;4975739;28;20552;-67
2022/04/05 09:39:19;;;;;;;9.77;6.82;;;6.90;76.40;;;;;;4979252;28;20038;-66
2022/04/05 09:41:46;;;;;;;8.82;6.65;;;6.90;76.30;;;;;;4978113;28;20053;-68
2022/04/05 09:44:12;;;;;;;9.32;6.93;;;7.00;76.00;;;;;;4977984;28;20042;-66
2022/04/05 09:46:40;;;;;;;8.48;6.53;;;7.10;76.10;;;;;;4976287;28;20453;-66
2022/04/05 09:49:11;;;;;;;9.27;6.72;;;7.20;76.00;;;;;;4978634;28;20035;-66
2022/04/05 09:51:44;;;;;;;10.13;6.47;;;7.30;76.00;;;;;;4976054;28;20238;-66
2022/04/05 09:54:28;;;;;;;9.83;7.20;;;7.40;75.50;;;;;;4975650;28;20031;-66
2022/04/05 09:57:00;;;;;;;9.45;6.30;;;7.50;75.10;;;;;;4972234;28;20030;-67
2022/04/05 09:59:34;;;;;;;9.40;6.20;;;7.50;74.90;;;;;;4975497;28;20027;-67
2022/04/05 10:02:11;;;;;;;9.85;7.00;;;7.60;75.00;;;;;;4976276;28;20030;-67
2022/04/05 10:04:58;;;;;;;8.75;6.40;;;7.70;74.90;;;;;;4977159;28;20041;-66
2022/04/05 10:07:26;;;;;;;11.73;7.75;;;7.80;74.40;;;;;;4981181;28;20038;-66
2022/04/05 10:09:52;;;;;;;10.75;7.28;;;7.90;74.40;;;;;;4980033;28;20502;-66
2022/04/05 10:12:19;;;;;;;13.50;9.15;;;7.90;74.30;;;;;;4981076;28;20038;-67
2022/04/05 10:14:45;;;;;;;12.55;8.43;;;7.90;74.10;;;;;;4980244;28;20057;-66
2022/04/05 10:17:13;;;;;;;10.00;7.70;;;8.00;73.90;;;;;;4979930;28;20042;-66
2022/04/05 10:19:44;;;;;;;10.73;7.55;;;8.10;74.00;;;;;;4980777;28;20092;-67
2022/04/05 10:22:12;;;;;;;9.55;6.95;;;8.10;73.50;;;;;;4980896;28;20043;-67
2022/04/05 10:24:39;;;;;;;9.35;7.07;;;8.20;73.60;;;;;;4979573;28;20837;-66
2022/04/05 10:27:06;;;;;;;10.13;7.78;;;8.30;73.50;;;;;;4979935;28;20041;-65
2022/04/05 10:29:32;;;;;;;10.43;7.60;;;8.30;73.30;;;;;;4973335;28;20117;-65
2022/04/05 10:32:06;;;;;;;11.45;7.22;;;8.40;73.50;;;;;;4957792;28;20550;-64
2022/04/05 10:34:36;;;;;;;9.48;6.88;;;8.50;73.50;;;;;;4977268;28;20046;-65
2022/04/05 10:37:28;;;;;;;8.77;6.70;;;8.60;73.20;;;;;;4977996;28;20303;-64
2022/04/05 10:39:57;;;;;;;8.95;7.07;;;8.60;72.50;;;;;;4976969;28;20118;-65
2022/04/05 10:42:25;;;;;;;10.52;6.82;;;8.70;72.00;;;;;;4960930;28;20035;-65
2022/04/05 10:45:13;;;;;;;7.40;6.40;;;8.80;71.60;;;;;;4981824;28;20034;-65
2022/04/05 10:48:11;;;;;;;7.32;5.75;;;8.80;70.00;;;;;;4981465;28;20027;-65
2022/04/05 10:50:37;;;;;;;8.93;6.10;;;8.90;69.90;;;;;;4980419;28;20038;-65
2022/04/05 10:53:18;;;;;;;7.93;5.60;;;8.90;70.60;;;;;;4981882;28;20038;-65
2022/04/05 10:56:02;;;;;;;8.70;6.30;;;9.00;70.00;;;;;;4978979;28;20106;-65
2022/04/05 10:58:40;;;;;;;7.78;6.25;;;9.00;69.00;;;;;;4979506;28;20397;-67
2022/04/05 11:01:18;;;;;;;8.73;6.07;;;9.00;69.90;;;;;;4975728;28;20035;-68
2022/04/05 11:04:21;;;;;;;10.25;6.57;;;9.10;69.40;;;;;;4963495;28;20058;-67
2022/04/05 11:06:59;;;;;;;11.30;6.13;;;9.10;68.70;;;;;;4980260;28;20038;-68
2022/04/05 11:09:34;;;;;;;8.40;6.30;;;9.10;68.90;;;;;;4977737;28;20062;-69
2022/04/05 11:12:06;;;;;;;10.77;6.70;;;9.20;68.50;;;;;;4965115;28;20544;-67
2022/04/05 11:14:47;;;;;;;8.65;6.60;;;9.20;68.50;;;;;;4975133;28;20410;-67
2022/04/05 11:17:14;;;;;;;12.40;6.88;;;9.30;68.40;;;;;;4965592;28;20251;-66
2022/04/05 11:19:43;;;;;;;10.18;5.85;;;9.30;68.60;;;;;;4982020;28;20034;-65
2022/04/05 11:22:21;;;;;;;10.13;5.60;;;9.40;68.30;;;;;;4968427;28;20401;-65
2022/04/05 11:24:57;;;;;;;7.40;5.78;;;9.40;67.70;;;;;;4963470;28;20031;-64
2022/04/05 11:27:35;;;;;;;9.20;6.03;;;9.50;67.40;;;;;;4978668;28;20521;-65
2022/04/05 11:30:28;;;;;;;7.97;5.95;;;9.50;67.60;;;;;;4979701;28;20035;-67
2022/04/05 11:33:09;;;;;;;;;;;;;;;;;;;;;
2022/04/05 11:35:38;;;;;;;7.50;5.43;;;9.60;66.90;;;;;;4982279;28;20049;-65
2022/04/05 11:38:17;;;;;;;8.10;5.55;;;9.60;67.40;;;;;;4981179;28;20046;-65
2022/04/05 11:40:44;;;;;;;9.43;5.25;;;9.70;67.10;;;;;;4979858;28;20497;-65
2022/04/05 11:43:30;;;;;;;10.07;5.32;;;9.70;67.10;;;;;;4978394;28;20129;-65
2022/04/05 11:46:10;;;;;;;7.43;4.97;;;9.70;66.80;;;;;;4979956;28;20030;-65
2022/04/05 11:48:45;;;;;;;10.57;5.53;;;9.80;67.10;;;;;;4981457;28;20391;-66
2022/04/05 11:51:14;;;;;;;8.60;5.47;;;9.80;66.20;;;;;;4979621;28;20413;-66
2022/04/05 11:53:42;;;;;;;8.82;5.68;;;9.90;66.60;;;;;;4980143;28;20135;-65
2022/04/05 11:56:12;;;;;;;7.15;5.70;;;9.90;66.40;;;;;;4978935;28;20023;-65
2022/04/05 11:58:41;;;;;;;6.93;5.40;;;10.00;66.70;;;;;;4961161;28;20031;-65
2022/04/05 12:01:09;;;;;;;8.23;5.82;;;10.00;66.80;;;;;;4967496;28;20093;-67
2022/04/05 12:03:44;;;;;;;8.20;5.50;;;10.10;66.70;;;;;;4978143;28;20042;-66
2022/04/05 12:06:09;;;;;;;9.85;5.60;;;10.10;65.90;;;;;;4966739;28;20113;-65
2022/04/05 12:08:35;;;;;;;7.47;5.60;;;10.10;66.40;;;;;;4962477;28;20049;-66
2022/04/05 12:11:01;;;;;;;6.38;5.25;;;10.20;65.80;;;;;;4976015;28;20513;-65
2022/04/05 12:13:28;;;;;;;7.72;5.20;;;10.20;65.70;;;;;;4979183;28;20038;-65
2022/04/05 12:16:02;;;;;;;9.05;5.60;;;10.20;65.30;;;;;;4978674;28;20023;-65
2022/04/05 12:18:28;;;;;;;8.38;5.78;;;10.20;65.30;;;;;;4975221;28;20038;-66
2022/04/05 12:21:01;;;;;;;8.85;5.38;;;10.20;65.70;;;;;;4978598;28;20430;-65
2022/04/05 12:23:49;;;;;;;7.25;5.18;;;10.20;65.50;;;;;;4979728;28;20034;-65
2022/04/05 12:26:16;;;;;;;11.05;5.72;;;10.20;65.30;;;;;;4963542;28;20542;-65
2022/04/05 12:28:57;;;;;;;8.02;5.78;;;10.30;65.30;;;;;;4962225;28;20550;-66
2022/04/05 12:31:28;;;;;;;11.90;5.95;;;10.30;64.30;;;;;;4972174;28;20038;-65
2022/04/05 12:34:05;;;;;;;6.72;5.30;;;10.30;64.80;;;;;;4970614;28;20430;-66
2022/04/05 12:36:46;;;;;;;11.80;5.72;;;10.30;64.60;;;;;;4967082;28;20031;-65
2022/04/05 12:39:25;;;;;;;9.23;5.28;;;10.40;64.40;;;;;;4981227;28;20034;-65
2022/04/05 12:41:54;;;;;;;7.40;5.53;;;10.40;64.30;;;;;;4981276;28;20502;-69
2022/04/05 12:44:27;;;;;;;7.85;5.55;;;10.50;65.00;;;;;;4979504;28;20046;-69
2022/04/05 12:47:04;;;;;;;8.35;5.95;;;10.60;64.70;;;;;;4976632;28;20069;-68
2022/04/05 12:49:34;;;;;;;9.63;5.65;;;10.60;64.50;;;;;;4978298;28;20514;-66
2022/04/05 12:52:20;;;;;;;6.03;5.13;;;10.70;64.90;;;;;;4977718;28;20039;-68
2022/04/05 12:55:02;;;;;;;8.35;5.20;;;10.80;63.20;;;;;;4977734;28;20502;-68
2022/04/05 12:57:34;;;;;;;8.73;5.13;;;10.90;64.40;;;;;;4978176;28;20323;-69
2022/04/05 13:00:08;;;;;;;8.80;5.60;;;11.00;64.00;;;;;;4978882;28;20088;-68